Carnival Victory — 3FFL8 — position and weather

sailwx.info

Track history (hours):
 
Tides and Currents Weather Stations Pressure Air Temp Water Temp Dewpoint Dewpoint Depression Visibility Wind Speed Wind Dir Waves Ship Positions

Carnival Victory

Operator: Carnival Cruise Lines

Last reported at 2017-Sep-26 00:30 UTC. Time now 2017-Sep-26 05:48 UTC.
Position N 25°04' W 080°02'.

Type: Passenger vessel. MMSI: 355263000.

Date/timePositionNaut miles runAvg speedWind from/ knotsBaromVisibWave heightAir tempDewpointWater temp
2017-Sep-26 00:30N 25°04' W 080°02'712.9
2017-Sep-25 23:56N 25°11' W 079°59'512.7
2017-Sep-25 23:30N 25°16' W 079°58'613.0
2017-Sep-25 23:00N 25°22' W 079°56'713.2
2017-Sep-25 22:30N 25°29' W 079°54'713.6
2017-Sep-25 22:00N 25°35' W 079°53'713.7
2017-Sep-25 21:31N 25°41' W 079°57'713.4
2017-Sep-25 21:00N 25°46' W 080°02'611.8
2017-Sep-25 20:30N 25°46' W 080°09'1 2.0
2017-Sep-25 19:58N 25°47' W 080°10'0 0.0
2017-Sep-25 19:29N 25°47' W 080°10'0 0.0
2017-Sep-25 18:58N 25°47' W 080°10'0 0.0
2017-Sep-25 18:28N 25°47' W 080°10'0 0.0
2017-Sep-25 17:59N 25°47' W 080°10'0 0.0
2017-Sep-25 17:29N 25°47' W 080°10'0 0.0
2017-Sep-25 16:58N 25°47' W 080°10'0 0.0
2017-Sep-25 16:28N 25°47' W 080°10'0 0.0
2017-Sep-25 15:58N 25°47' W 080°10'0 0.0
2017-Sep-25 15:28N 25°47' W 080°10'0 0.0
2017-Sep-25 14:58N 25°47' W 080°10'0 0.0
2017-Sep-25 14:28N 25°47' W 080°10'0 0.0
2017-Sep-25 13:59N 25°47' W 080°10'0 0.0
2017-Sep-25 13:29N 25°47' W 080°10'0 0.0
2017-Sep-25 12:59N 25°47' W 080°10'0 0.0
2017-Sep-25 12:29N 25°47' W 080°10'0 0.0
2017-Sep-25 11:58N 25°47' W 080°10'0 0.0
2017-Sep-25 11:29N 25°47' W 080°10'0 0.0
2017-Sep-25 11:01N 25°47' W 080°10'1 1.3
2017-Sep-25 10:31N 25°47' W 080°11'2 3.5
2017-Sep-25 10:01N 25°46' W 080°09'4 8.6
2017-Sep-25 09:30N 25°46' W 080°04'4 9.0
2017-Sep-25 09:00N 25°48' W 079°60'4 8.4
2017-Sep-25 08:30N 25°49' W 079°55'4 8.7
2017-Sep-25 08:00N 25°51' W 079°51'4 8.9
2017-Sep-25 07:30N 25°53' W 079°46'5 9.4
2017-Sep-25 07:00N 25°55' W 079°42'5347.7
2017-Sep-25 07:00N 25°54' W 079°36'4 8.1 070 / 201010.710.8 28.025.330.0
2017-Sep-25 06:30N 25°58' W 079°37'5 8.9
2017-Sep-25 06:00N 26°02' W 079°35'4 8.7
2017-Sep-25 05:30N 26°05' W 079°32'4 8.9
2017-Sep-25 05:00N 26°09' W 079°29'5 9.0
2017-Sep-25 04:30N 26°13' W 079°27'4 8.7
2017-Sep-25 04:00N 26°16' W 079°24'4 9.0
2017-Sep-25 03:30N 26°19' W 079°19'4111.7
2017-Sep-25 00:00N 26°06' W 078°36'77 2.1 170 / 11010.810.8 28.025.330.0
2017-Sep-23 12:00N 25°24' W 077°24'6010.0 350 / 41008.7 5.4 28.025.331.0
2017-Sep-23 06:00N 26°06' W 078°12'60125.0 190 / 171008.810.8 26.023.230.0
2017-Sep-22 06:00N 24°48' W 089°12'41669.3 160 / 141012.410.8 28.025.330.0
2017-Sep-22 00:00N 23°42' W 081°42'20615.8 200 / 41012.410.8 28.025.330.0
2017-Sep-21 11:00N 22°18' W 085°06'8216.3 190 / 171013.4 5.4 28.025.3
2017-Sep-21 06:00N 21°24' W 086°12'48 2.4 190 / 131013.210.8 28.025.330.0
2017-Sep-20 10:00N 20°42' W 086°36'4511.3 030 / 211012.610.8 27.025.731.0
2017-Sep-20 06:00N 21°12' W 086°00'2110.6 340 / 221014.410.8 28.025.330.0
2017-Sep-20 04:00N 21°30' W 085°48'23013.5 330 / 201013.410.8 27.024.329.0
2017-Sep-19 11:00N 23°42' W 082°24'7014.0 080 / 121013.4 5.4 27.025.731.0
2017-Sep-19 06:00N 24°06' W 081°12'8414.9 110 / 71013.410.8 28.025.330.0
2017-Sep-19 00:20N 25°03' W 080°03'413.5
2017-Sep-19 00:00N 25°07' W 080°01'713.8
2017-Sep-18 23:29N 25°13' W 079°57'714.9
2017-Sep-18 23:00N 25°20' W 079°57'815.3
2017-Sep-18 22:30N 25°28' W 079°56'714.5
2017-Sep-18 22:00N 25°35' W 079°55'714.0
2017-Sep-18 21:30N 25°42' W 079°57'713.9
2017-Sep-18 21:00N 25°46' W 080°03'510.0
2017-Sep-18 20:30N 25°46' W 080°08'2 3.4
2017-Sep-18 20:00N 25°47' W 080°10'0 0.0
2017-Sep-18 19:30N 25°47' W 080°10'0 0.0
2017-Sep-18 18:54N 25°47' W 080°10'0 0.0
2017-Sep-18 18:30N 25°47' W 080°10'0 0.0
2017-Sep-18 18:00N 25°47' W 080°10'0 0.0
2017-Sep-18 17:30N 25°47' W 080°10'0 0.0
2017-Sep-18 16:42N 25°47' W 080°10'0 0.0
2017-Sep-18 16:24N 25°47' W 080°10'0 0.0
2017-Sep-18 16:00N 25°47' W 080°10'0 0.0
2017-Sep-18 15:30N 25°47' W 080°10'0 0.0
2017-Sep-18 15:00N 25°47' W 080°10'0 0.0
2017-Sep-18 14:30N 25°47' W 080°10'0 0.0
2017-Sep-18 14:00N 25°47' W 080°10'0 0.0
2017-Sep-18 13:30N 25°47' W 080°10'0 0.0
2017-Sep-18 13:00N 25°47' W 080°10'0 0.0
2017-Sep-18 12:30N 25°47' W 080°10'0 0.0
2017-Sep-18 12:00N 25°47' W 080°10'0 0.0
2017-Sep-18 11:30N 25°47' W 080°10'0 0.0
2017-Sep-18 11:00N 25°47' W 080°10'0 0.0
2017-Sep-18 10:30N 25°47' W 080°10'1 1.3
2017-Sep-18 10:00N 25°46' W 080°10'5 9.5
2017-Sep-18 09:30N 25°46' W 080°04'5 9.3
2017-Sep-18 09:00N 25°48' W 079°60'510.3
2017-Sep-18 08:30N 25°50' W 079°54'5 9.7
2017-Sep-18 08:00N 25°52' W 079°49'4 8.9
2017-Sep-18 07:30N 25°54' W 079°45'510.0
2017-Sep-18 07:00N 25°56' W 079°40'5 9.3
2017-Sep-18 06:30N 25°59' W 079°36'4 8.3
2017-Sep-18 06:00N 26°02' W 079°34'4264.8
2017-Sep-18 06:00N 26°00' W 079°30'612.6 140 / 61014.410.8 28.025.330.0
2017-Sep-18 05:30N 26°06' W 079°31'4 8.8
2017-Sep-18 05:00N 26°10' W 079°29'5 9.1
2017-Sep-18 04:30N 26°14' W 079°26'62 1.3
2017-Sep-16 06:00N 26°06' W 078°18'4413.3 100 / 71014.410.8 28.025.330.0
2017-Sep-16 02:38N 26°19' W 079°05'313.1
2017-Sep-16 02:24N 26°18' W 079°09'513.6
2017-Sep-16 02:00N 26°15' W 079°14'713.1
2017-Sep-16 01:30N 26°11' W 079°20'713.0
2017-Sep-16 01:00N 26°08' W 079°26'713.0
2017-Sep-16 00:30N 26°04' W 079°32'  
Track history (hours):
 
Tides and Currents Weather Stations Pressure Air Temp Water Temp Dewpoint Dewpoint Depression Visibility Wind Speed Wind Dir Waves Ship Positions

Carnival Victory

Operator: Carnival Cruise Lines

Last reported at 2017-Sep-26 00:30 UTC. Time now 2017-Sep-26 05:48 UTC.
Position N 25°04' W 080°02'.

Type: Passenger vessel. MMSI: 355263000.

Date/timePositionNaut miles runAvg speedWind from/ knotsBaromVisibWave heightAir tempDewpointWater temp
2017-Sep-26 00:30N 25°04' W 080°02'712.9
2017-Sep-25 23:56N 25°11' W 079°59'512.7
2017-Sep-25 23:30N 25°16' W 079°58'613.0
2017-Sep-25 23:00N 25°22' W 079°56'713.2
2017-Sep-25 22:30N 25°29' W 079°54'713.6
2017-Sep-25 22:00N 25°35' W 079°53'713.7
2017-Sep-25 21:31N 25°41' W 079°57'713.4
2017-Sep-25 21:00N 25°46' W 080°02'611.8
2017-Sep-25 20:30N 25°46' W 080°09'1 2.0
2017-Sep-25 19:58N 25°47' W 080°10'0 0.0
2017-Sep-25 19:29N 25°47' W 080°10'0 0.0
2017-Sep-25 18:58N 25°47' W 080°10'0 0.0
2017-Sep-25 18:28N 25°47' W 080°10'0 0.0
2017-Sep-25 17:59N 25°47' W 080°10'0 0.0
2017-Sep-25 17:29N 25°47' W 080°10'0 0.0
2017-Sep-25 16:58N 25°47' W 080°10'0 0.0
2017-Sep-25 16:28N 25°47' W 080°10'0 0.0
2017-Sep-25 15:58N 25°47' W 080°10'0 0.0
2017-Sep-25 15:28N 25°47' W 080°10'0 0.0
2017-Sep-25 14:58N 25°47' W 080°10'0 0.0
2017-Sep-25 14:28N 25°47' W 080°10'0 0.0
2017-Sep-25 13:59N 25°47' W 080°10'0 0.0
2017-Sep-25 13:29N 25°47' W 080°10'0 0.0
2017-Sep-25 12:59N 25°47' W 080°10'0 0.0
2017-Sep-25 12:29N 25°47' W 080°10'0 0.0
2017-Sep-25 11:58N 25°47' W 080°10'0 0.0
2017-Sep-25 11:29N 25°47' W 080°10'0 0.0
2017-Sep-25 11:01N 25°47' W 080°10'1 1.3
2017-Sep-25 10:31N 25°47' W 080°11'2 3.5
2017-Sep-25 10:01N 25°46' W 080°09'4 8.6
2017-Sep-25 09:30N 25°46' W 080°04'4 9.0
2017-Sep-25 09:00N 25°48' W 079°60'4 8.4
2017-Sep-25 08:30N 25°49' W 079°55'4 8.7
2017-Sep-25 08:00N 25°51' W 079°51'4 8.9
2017-Sep-25 07:30N 25°53' W 079°46'5 9.4
2017-Sep-25 07:00N 25°55' W 079°42'5347.7
2017-Sep-25 07:00N 25°54' W 079°36'4 8.1 070 / 201010.710.8 28.025.330.0
2017-Sep-25 06:30N 25°58' W 079°37'5 8.9
2017-Sep-25 06:00N 26°02' W 079°35'4 8.7
2017-Sep-25 05:30N 26°05' W 079°32'4 8.9
2017-Sep-25 05:00N 26°09' W 079°29'5 9.0
2017-Sep-25 04:30N 26°13' W 079°27'4 8.7
2017-Sep-25 04:00N 26°16' W 079°24'4 9.0
2017-Sep-25 03:30N 26°19' W 079°19'4111.7
2017-Sep-25 00:00N 26°06' W 078°36'77 2.1 170 / 11010.810.8 28.025.330.0
2017-Sep-23 12:00N 25°24' W 077°24'6010.0 350 / 41008.7 5.4 28.025.331.0
2017-Sep-23 06:00N 26°06' W 078°12'60125.0 190 / 171008.810.8 26.023.230.0
2017-Sep-22 06:00N 24°48' W 089°12'41669.3 160 / 141012.410.8 28.025.330.0
2017-Sep-22 00:00N 23°42' W 081°42'20615.8 200 / 41012.410.8 28.025.330.0
2017-Sep-21 11:00N 22°18' W 085°06'8216.3 190 / 171013.4 5.4 28.025.3
2017-Sep-21 06:00N 21°24' W 086°12'48 2.4 190 / 131013.210.8 28.025.330.0
2017-Sep-20 10:00N 20°42' W 086°36'4511.3 030 / 211012.610.8 27.025.731.0
2017-Sep-20 06:00N 21°12' W 086°00'2110.6 340 / 221014.410.8 28.025.330.0
2017-Sep-20 04:00N 21°30' W 085°48'23013.5 330 / 201013.410.8 27.024.329.0
2017-Sep-19 11:00N 23°42' W 082°24'7014.0 080 / 121013.4 5.4 27.025.731.0
2017-Sep-19 06:00N 24°06' W 081°12'8414.9 110 / 71013.410.8 28.025.330.0
2017-Sep-19 00:20N 25°03' W 080°03'413.5
2017-Sep-19 00:00N 25°07' W 080°01'713.8
2017-Sep-18 23:29N 25°13' W 079°57'714.9
2017-Sep-18 23:00N 25°20' W 079°57'815.3
2017-Sep-18 22:30N 25°28' W 079°56'714.5
2017-Sep-18 22:00N 25°35' W 079°55'714.0
2017-Sep-18 21:30N 25°42' W 079°57'713.9
2017-Sep-18 21:00N 25°46' W 080°03'510.0
2017-Sep-18 20:30N 25°46' W 080°08'2 3.4
2017-Sep-18 20:00N 25°47' W 080°10'0 0.0
2017-Sep-18 19:30N 25°47' W 080°10'0 0.0
2017-Sep-18 18:54N 25°47' W 080°10'0 0.0
2017-Sep-18 18:30N 25°47' W 080°10'0 0.0
2017-Sep-18 18:00N 25°47' W 080°10'0 0.0
2017-Sep-18 17:30N 25°47' W 080°10'0 0.0
2017-Sep-18 16:42N 25°47' W 080°10'0 0.0
2017-Sep-18 16:24N 25°47' W 080°10'0 0.0
2017-Sep-18 16:00N 25°47' W 080°10'0 0.0
2017-Sep-18 15:30N 25°47' W 080°10'0 0.0
2017-Sep-18 15:00N 25°47' W 080°10'0 0.0
2017-Sep-18 14:30N 25°47' W 080°10'0 0.0
2017-Sep-18 14:00N 25°47' W 080°10'0 0.0
2017-Sep-18 13:30N 25°47' W 080°10'0 0.0
2017-Sep-18 13:00N 25°47' W 080°10'0 0.0
2017-Sep-18 12:30N 25°47' W 080°10'0 0.0
2017-Sep-18 12:00N 25°47' W 080°10'0 0.0
2017-Sep-18 11:30N 25°47' W 080°10'0 0.0
2017-Sep-18 11:00N 25°47' W 080°10'0 0.0
2017-Sep-18 10:30N 25°47' W 080°10'1 1.3
2017-Sep-18 10:00N 25°46' W 080°10'5 9.5
2017-Sep-18 09:30N 25°46' W 080°04'5 9.3
2017-Sep-18 09:00N 25°48' W 079°60'510.3
2017-Sep-18 08:30N 25°50' W 079°54'5 9.7
2017-Sep-18 08:00N 25°52' W 079°49'4 8.9
2017-Sep-18 07:30N 25°54' W 079°45'510.0
2017-Sep-18 07:00N 25°56' W 079°40'5 9.3
2017-Sep-18 06:30N 25°59' W 079°36'4 8.3
2017-Sep-18 06:00N 26°02' W 079°34'4264.8
2017-Sep-18 06:00N 26°00' W 079°30'612.6 140 / 61014.410.8 28.025.330.0
2017-Sep-18 05:30N 26°06' W 079°31'4 8.8
2017-Sep-18 05:00N 26°10' W 079°29'5 9.1
2017-Sep-18 04:30N 26°14' W 079°26'62 1.3
2017-Sep-16 06:00N 26°06' W 078°18'4413.3 100 / 71014.410.8 28.025.330.0
2017-Sep-16 02:38N 26°19' W 079°05'313.1
2017-Sep-16 02:24N 26°18' W 079°09'513.6
2017-Sep-16 02:00N 26°15' W 079°14'713.1
2017-Sep-16 01:30N 26°11' W 079°20'713.0
2017-Sep-16 01:00N 26°08' W 079°26'713.0
2017-Sep-16 00:30N 26°04' W 079°32'  

Dump ship's entire track history